sensor_id;sensor_type;location;lat;lon;timestamp;temperature;humidity
23371;DHT22;11858;51.056;3.712;2023-06-14T00:01:50;22.30;99.90
23371;DHT22;11858;51.056;3.712;2023-06-14T00:04:16;22.30;99.90
23371;DHT22;11858;51.056;3.712;2023-06-14T00:06:43;22.40;99.90
23371;DHT22;11858;51.056;3.712;2023-06-14T00:09:11;22.30;99.90
23371;DHT22;11858;51.056;3.712;2023-06-14T00:11:39;22.30;99.90
23371;DHT22;11858;51.056;3.712;2023-06-14T00:14:05;22.30;99.90
23371;DHT22;11858;51.056;3.712;2023-06-14T00:16:31;22.10;99.90
23371;DHT22;11858;51.056;3.712;2023-06-14T00:18:59;22.10;99.90
23371;DHT22;11858;51.056;3.712;2023-06-14T00:21:24;22.10;99.90
23371;DHT22;11858;51.056;3.712;2023-06-14T00:23:50;22.00;99.90
23371;DHT22;11858;51.056;3.712;2023-06-14T00:26:16;22.00;99.90
23371;DHT22;11858;51.056;3.712;2023-06-14T00:28:41;22.10;99.90
23371;DHT22;11858;51.056;3.712;2023-06-14T00:31:07;22.00;99.90
23371;DHT22;11858;51.056;3.712;2023-06-14T00:33:33;21.90;99.90
23371;DHT22;11858;51.056;3.712;2023-06-14T00:35:58;21.90;99.90
23371;DHT22;11858;51.056;3.712;2023-06-14T00:38:24;21.80;99.90
23371;DHT22;11858;51.056;3.712;2023-06-14T00:40:50;21.70;99.90
23371;DHT22;11858;51.056;3.712;2023-06-14T00:43:16;21.80;99.90
23371;DHT22;11858;51.056;3.712;2023-06-14T00:45:41;21.90;99.90
23371;DHT22;11858;51.056;3.712;2023-06-14T00:48:08;21.90;99.90
23371;DHT22;11858;51.056;3.712;2023-06-14T00:50:35;21.80;99.90
23371;DHT22;11858;51.056;3.712;2023-06-14T00:53:02;21.90;99.90
23371;DHT22;11858;51.056;3.712;2023-06-14T00:55:28;21.80;99.90
23371;DHT22;11858;51.056;3.712;2023-06-14T00:57:55;21.90;99.90
23371;DHT22;11858;51.056;3.712;2023-06-14T01:00:21;21.80;99.90
23371;DHT22;11858;51.056;3.712;2023-06-14T01:02:47;21.70;99.90
23371;DHT22;11858;51.056;3.712;2023-06-14T01:05:14;21.80;99.90
23371;DHT22;11858;51.056;3.712;2023-06-14T01:10:39;21.60;99.90
23371;DHT22;11858;51.056;3.712;2023-06-14T01:13:23;21.70;99.90
23371;DHT22;11858;51.056;3.712;2023-06-14T01:15:52;21.60;99.90
23371;DHT22;11858;51.056;3.712;2023-06-14T01:18:19;21.70;99.90
23371;DHT22;11858;51.056;3.712;2023-06-14T01:20:47;21.50;99.90
23371;DHT22;11858;51.056;3.712;2023-06-14T01:23:20;21.40;99.90
23371;DHT22;11858;51.056;3.712;2023-06-14T01:25:46;21.30;99.90
23371;DHT22;11858;51.056;3.712;2023-06-14T01:28:13;21.40;99.90
23371;DHT22;11858;51.056;3.712;2023-06-14T01:30:44;21.20;99.90
23371;DHT22;11858;51.056;3.712;2023-06-14T01:33:14;21.20;99.90
23371;DHT22;11858;51.056;3.712;2023-06-14T01:35:45;21.10;99.90
23371;DHT22;11858;51.056;3.712;2023-06-14T01:38:15;21.00;99.90
23371;DHT22;11858;51.056;3.712;2023-06-14T01:40:43;21.10;99.90
23371;DHT22;11858;51.056;3.712;2023-06-14T01:43:11;21.00;99.90
23371;DHT22;11858;51.056;3.712;2023-06-14T01:45:40;21.00;99.90
23371;DHT22;11858;51.056;3.712;2023-06-14T01:48:07;21.00;99.90
23371;DHT22;11858;51.056;3.712;2023-06-14T01:50:33;21.00;99.90
23371;DHT22;11858;51.056;3.712;2023-06-14T01:52:59;21.00;99.90
23371;DHT22;11858;51.056;3.712;2023-06-14T01:55:25;21.00;99.90
23371;DHT22;11858;51.056;3.712;2023-06-14T01:57:51;20.90;99.90
23371;DHT22;11858;51.056;3.712;2023-06-14T02:00:17;20.80;99.90
23371;DHT22;11858;51.056;3.712;2023-06-14T02:02:44;20.90;99.90
23371;DHT22;11858;51.056;3.712;2023-06-14T02:05:09;20.80;99.90
23371;DHT22;11858;51.056;3.712;2023-06-14T02:07:36;20.70;99.90
23371;DHT22;11858;51.056;3.712;2023-06-14T02:10:02;20.70;99.90
23371;DHT22;11858;51.056;3.712;2023-06-14T02:12:28;20.70;99.90
23371;DHT22;11858;51.056;3.712;2023-06-14T02:14:53;20.70;99.90
23371;DHT22;11858;51.056;3.712;2023-06-14T02:17:20;20.70;99.90
23371;DHT22;11858;51.056;3.712;2023-06-14T02:19:45;20.60;99.90
23371;DHT22;11858;51.056;3.712;2023-06-14T02:22:11;20.60;99.90
23371;DHT22;11858;51.056;3.712;2023-06-14T02:24:37;20.70;99.90
23371;DHT22;11858;51.056;3.712;2023-06-14T02:27:03;20.50;99.90
23371;DHT22;11858;51.056;3.712;2023-06-14T02:29:29;20.40;99.90
23371;DHT22;11858;51.056;3.712;2023-06-14T02:31:55;20.40;99.90
23371;DHT22;11858;51.056;3.712;2023-06-14T02:34:20;20.30;99.90
23371;DHT22;11858;51.056;3.712;2023-06-14T02:36:47;20.30;99.90
23371;DHT22;11858;51.056;3.712;2023-06-14T02:39:13;20.40;99.90
23371;DHT22;11858;51.056;3.712;2023-06-14T02:41:39;20.30;99.90
23371;DHT22;11858;51.056;3.712;2023-06-14T02:44:05;20.40;99.90
23371;DHT22;11858;51.056;3.712;2023-06-14T02:46:31;20.30;99.90
23371;DHT22;11858;51.056;3.712;2023-06-14T02:48:57;20.30;99.90
23371;DHT22;11858;51.056;3.712;2023-06-14T02:51:22;20.10;99.90
23371;DHT22;11858;51.056;3.712;2023-06-14T02:53:48;20.20;99.90
23371;DHT22;11858;51.056;3.712;2023-06-14T02:56:14;20.20;99.90
23371;DHT22;11858;51.056;3.712;2023-06-14T02:58:39;20.10;99.90
23371;DHT22;11858;51.056;3.712;2023-06-14T03:01:06;20.10;99.90
23371;DHT22;11858;51.056;3.712;2023-06-14T03:03:33;20.10;99.90
23371;DHT22;11858;51.056;3.712;2023-06-14T03:05:59;20.20;99.90
23371;DHT22;11858;51.056;3.712;2023-06-14T03:08:30;20.10;99.90
23371;DHT22;11858;51.056;3.712;2023-06-14T03:10:57;20.10;99.90
23371;DHT22;11858;51.056;3.712;2023-06-14T03:13:23;20.10;99.90
23371;DHT22;11858;51.056;3.712;2023-06-14T03:15:49;20.20;99.90
23371;DHT22;11858;51.056;3.712;2023-06-14T03:18:16;20.20;99.90
23371;DHT22;11858;51.056;3.712;2023-06-14T03:20:42;20.00;99.90
23371;DHT22;11858;51.056;3.712;2023-06-14T03:23:10;19.90;99.90
23371;DHT22;11858;51.056;3.712;2023-06-14T03:25:37;19.90;99.90
23371;DHT22;11858;51.056;3.712;2023-06-14T03:28:04;20.10;99.90
23371;DHT22;11858;51.056;3.712;2023-06-14T03:30:31;20.10;99.90
23371;DHT22;11858;51.056;3.712;2023-06-14T03:32:57;20.00;99.90
23371;DHT22;11858;51.056;3.712;2023-06-14T03:35:23;19.90;99.90
23371;DHT22;11858;51.056;3.712;2023-06-14T03:37:49;20.00;99.90
23371;DHT22;11858;51.056;3.712;2023-06-14T03:40:17;20.00;99.90
23371;DHT22;11858;51.056;3.712;2023-06-14T03:42:43;19.80;99.90
23371;DHT22;11858;51.056;3.712;2023-06-14T03:45:09;19.70;99.90
23371;DHT22;11858;51.056;3.712;2023-06-14T03:47:35;19.70;99.90
23371;DHT22;11858;51.056;3.712;2023-06-14T03:50:04;19.80;99.90
23371;DHT22;11858;51.056;3.712;2023-06-14T03:52:31;19.80;99.90
23371;DHT22;11858;51.056;3.712;2023-06-14T03:54:57;19.80;99.90
23371;DHT22;11858;51.056;3.712;2023-06-14T03:57:23;19.90;99.90
23371;DHT22;11858;51.056;3.712;2023-06-14T03:59:49;19.90;99.90
23371;DHT22;11858;51.056;3.712;2023-06-14T04:02:15;19.90;99.90
23371;DHT22;11858;51.056;3.712;2023-06-14T04:04:42;20.00;99.90
23371;DHT22;11858;51.056;3.712;2023-06-14T04:07:11;19.80;99.90
23371;DHT22;11858;51.056;3.712;2023-06-14T04:09:38;19.80;99.90
23371;DHT22;11858;51.056;3.712;2023-06-14T04:12:04;19.90;99.90
23371;DHT22;11858;51.056;3.712;2023-06-14T04:14:30;19.90;99.90
23371;DHT22;11858;51.056;3.712;2023-06-14T04:16:58;19.80;99.90
23371;DHT22;11858;51.056;3.712;2023-06-14T04:19:24;19.90;99.90
23371;DHT22;11858;51.056;3.712;2023-06-14T04:21:49;19.80;99.90
23371;DHT22;11858;51.056;3.712;2023-06-14T04:24:15;19.90;99.90
23371;DHT22;11858;51.056;3.712;2023-06-14T04:26:43;19.90;99.90
23371;DHT22;11858;51.056;3.712;2023-06-14T04:29:14;20.00;99.90
23371;DHT22;11858;51.056;3.712;2023-06-14T04:31:42;20.00;99.90
23371;DHT22;11858;51.056;3.712;2023-06-14T04:34:08;20.00;99.90
23371;DHT22;11858;51.056;3.712;2023-06-14T04:36:34;19.90;99.90
23371;DHT22;11858;51.056;3.712;2023-06-14T04:39:02;19.90;99.90
23371;DHT22;11858;51.056;3.712;2023-06-14T04:41:29;20.00;99.90
23371;DHT22;11858;51.056;3.712;2023-06-14T04:44:00;19.90;99.90
23371;DHT22;11858;51.056;3.712;2023-06-14T04:46:28;20.00;99.90
23371;DHT22;11858;51.056;3.712;2023-06-14T04:48:54;20.10;99.90
23371;DHT22;11858;51.056;3.712;2023-06-14T04:51:19;20.10;99.90
23371;DHT22;11858;51.056;3.712;2023-06-14T04:53:47;20.10;99.90
23371;DHT22;11858;51.056;3.712;2023-06-14T04:56:15;20.30;99.90
23371;DHT22;11858;51.056;3.712;2023-06-14T04:58:42;20.50;99.90
23371;DHT22;11858;51.056;3.712;2023-06-14T05:01:09;20.60;99.90
23371;DHT22;11858;51.056;3.712;2023-06-14T05:03:35;20.70;99.90
23371;DHT22;11858;51.056;3.712;2023-06-14T05:06:00;20.70;99.90
23371;DHT22;11858;51.056;3.712;2023-06-14T05:08:26;20.50;99.90
23371;DHT22;11858;51.056;3.712;2023-06-14T05:10:52;20.60;99.90
23371;DHT22;11858;51.056;3.712;2023-06-14T05:13:18;20.70;99.90
23371;DHT22;11858;51.056;3.712;2023-06-14T05:15:44;20.70;99.90
23371;DHT22;11858;51.056;3.712;2023-06-14T05:18:10;20.60;99.90
23371;DHT22;11858;51.056;3.712;2023-06-14T05:20:35;20.60;99.90
23371;DHT22;11858;51.056;3.712;2023-06-14T05:23:03;20.60;99.90
23371;DHT22;11858;51.056;3.712;2023-06-14T05:25:28;20.70;99.90
23371;DHT22;11858;51.056;3.712;2023-06-14T05:27:54;20.80;99.90
23371;DHT22;11858;51.056;3.712;2023-06-14T05:30:20;20.80;99.90
23371;DHT22;11858;51.056;3.712;2023-06-14T05:32:46;20.80;99.90
23371;DHT22;11858;51.056;3.712;2023-06-14T05:35:11;20.80;99.90
23371;DHT22;11858;51.056;3.712;2023-06-14T05:37:37;20.90;99.90
23371;DHT22;11858;51.056;3.712;2023-06-14T05:40:04;21.00;99.90
23371;DHT22;11858;51.056;3.712;2023-06-14T05:42:31;21.00;99.90
23371;DHT22;11858;51.056;3.712;2023-06-14T05:44:57;21.00;99.90
23371;DHT22;11858;51.056;3.712;2023-06-14T05:47:23;21.00;99.90
23371;DHT22;11858;51.056;3.712;2023-06-14T05:49:48;21.10;99.90
23371;DHT22;11858;51.056;3.712;2023-06-14T05:52:14;21.20;99.90
23371;DHT22;11858;51.056;3.712;2023-06-14T05:54:40;21.30;99.90
23371;DHT22;11858;51.056;3.712;2023-06-14T05:57:07;21.30;99.90
23371;DHT22;11858;51.056;3.712;2023-06-14T05:59:32;21.40;99.90
23371;DHT22;11858;51.056;3.712;2023-06-14T06:01:58;21.50;99.90
23371;DHT22;11858;51.056;3.712;2023-06-14T06:04:23;21.50;99.90
23371;DHT22;11858;51.056;3.712;2023-06-14T06:06:49;21.50;99.90
23371;DHT22;11858;51.056;3.712;2023-06-14T06:09:15;21.70;99.90
23371;DHT22;11858;51.056;3.712;2023-06-14T06:11:41;21.70;99.90
23371;DHT22;11858;51.056;3.712;2023-06-14T06:14:06;21.90;99.90
23371;DHT22;11858;51.056;3.712;2023-06-14T06:16:32;21.90;99.90
23371;DHT22;11858;51.056;3.712;2023-06-14T06:18:58;22.00;99.90
23371;DHT22;11858;51.056;3.712;2023-06-14T06:21:25;22.00;99.90
23371;DHT22;11858;51.056;3.712;2023-06-14T06:23:50;22.00;99.90
23371;DHT22;11858;51.056;3.712;2023-06-14T06:26:16;22.00;99.90
23371;DHT22;11858;51.056;3.712;2023-06-14T06:28:42;22.20;99.90
23371;DHT22;11858;51.056;3.712;2023-06-14T06:31:07;22.30;99.90
23371;DHT22;11858;51.056;3.712;2023-06-14T06:33:33;22.40;99.90
23371;DHT22;11858;51.056;3.712;2023-06-14T06:35:58;22.50;99.90
23371;DHT22;11858;51.056;3.712;2023-06-14T06:38:24;22.60;99.90
23371;DHT22;11858;51.056;3.712;2023-06-14T06:40:50;22.80;99.90
23371;DHT22;11858;51.056;3.712;2023-06-14T06:43:16;22.90;99.90
23371;DHT22;11858;51.056;3.712;2023-06-14T06:45:43;23.00;99.90
23371;DHT22;11858;51.056;3.712;2023-06-14T06:48:08;23.10;99.90
23371;DHT22;11858;51.056;3.712;2023-06-14T06:50:37;23.20;99.90
23371;DHT22;11858;51.056;3.712;2023-06-14T06:53:03;23.30;99.90
23371;DHT22;11858;51.056;3.712;2023-06-14T06:55:28;23.30;99.90
23371;DHT22;11858;51.056;3.712;2023-06-14T06:57:54;23.20;99.90
23371;DHT22;11858;51.056;3.712;2023-06-14T07:00:20;23.30;99.90
23371;DHT22;11858;51.056;3.712;2023-06-14T07:02:46;23.40;99.90
23371;DHT22;11858;51.056;3.712;2023-06-14T07:05:12;23.50;99.90
23371;DHT22;11858;51.056;3.712;2023-06-14T07:07:38;23.60;99.60
23371;DHT22;11858;51.056;3.712;2023-06-14T07:10:04;23.80;99.60
23371;DHT22;11858;51.056;3.712;2023-06-14T07:12:31;23.80;99.10
23371;DHT22;11858;51.056;3.712;2023-06-14T07:14:59;23.90;98.90
23371;DHT22;11858;51.056;3.712;2023-06-14T07:17:25;24.00;98.60
23371;DHT22;11858;51.056;3.712;2023-06-14T07:19:51;24.10;99.20
23371;DHT22;11858;51.056;3.712;2023-06-14T07:22:17;24.20;98.60
23371;DHT22;11858;51.056;3.712;2023-06-14T07:24:43;24.40;98.50
23371;DHT22;11858;51.056;3.712;2023-06-14T07:27:09;24.50;98.00
23371;DHT22;11858;51.056;3.712;2023-06-14T07:29:36;24.70;97.10
23371;DHT22;11858;51.056;3.712;2023-06-14T07:32:01;24.80;97.20
23371;DHT22;11858;51.056;3.712;2023-06-14T07:34:27;25.00;96.70
23371;DHT22;11858;51.056;3.712;2023-06-14T07:36:53;25.10;95.10
23371;DHT22;11858;51.056;3.712;2023-06-14T07:39:19;25.10;95.10
23371;DHT22;11858;51.056;3.712;2023-06-14T07:41:46;25.30;95.10
23371;DHT22;11858;51.056;3.712;2023-06-14T07:44:11;25.40;95.50
23371;DHT22;11858;51.056;3.712;2023-06-14T07:46:37;25.60;96.90
23371;DHT22;11858;51.056;3.712;2023-06-14T07:49:03;25.60;95.50
23371;DHT22;11858;51.056;3.712;2023-06-14T07:51:29;25.80;94.60
23371;DHT22;11858;51.056;3.712;2023-06-14T07:53:54;25.90;93.90
23371;DHT22;11858;51.056;3.712;2023-06-14T07:56:20;26.10;93.70
23371;DHT22;11858;51.056;3.712;2023-06-14T07:58:46;26.20;92.80
23371;DHT22;11858;51.056;3.712;2023-06-14T08:01:12;26.40;92.80
23371;DHT22;11858;51.056;3.712;2023-06-14T08:03:38;26.50;91.80
23371;DHT22;11858;51.056;3.712;2023-06-14T08:06:03;26.60;91.40
23371;DHT22;11858;51.056;3.712;2023-06-14T08:08:29;26.70;91.40
23371;DHT22;11858;51.056;3.712;2023-06-14T08:10:56;26.90;91.60
23371;DHT22;11858;51.056;3.712;2023-06-14T08:13:21;27.00;91.80
23371;DHT22;11858;51.056;3.712;2023-06-14T08:15:47;27.10;91.90
23371;DHT22;11858;51.056;3.712;2023-06-14T08:18:13;27.20;92.20
23371;DHT22;11858;51.056;3.712;2023-06-14T08:20:38;27.40;92.20
23371;DHT22;11858;51.056;3.712;2023-06-14T08:23:05;27.60;92.00
23371;DHT22;11858;51.056;3.712;2023-06-14T08:25:30;28.50;90.80
23371;DHT22;11858;51.056;3.712;2023-06-14T08:27:56;29.30;89.40
23371;DHT22;11858;51.056;3.712;2023-06-14T08:30:22;30.00;87.40
23371;DHT22;11858;51.056;3.712;2023-06-14T08:32:48;30.80;85.00
23371;DHT22;11858;51.056;3.712;2023-06-14T08:35:14;31.40;81.70
23371;DHT22;11858;51.056;3.712;2023-06-14T08:37:40;31.70;79.50
23371;DHT22;11858;51.056;3.712;2023-06-14T08:40:22;31.90;79.50
23371;DHT22;11858;51.056;3.712;2023-06-14T08:42:53;32.30;78.30
23371;DHT22;11858;51.056;3.712;2023-06-14T08:45:20;32.40;76.70
23371;DHT22;11858;51.056;3.712;2023-06-14T08:47:47;32.60;75.20
23371;DHT22;11858;51.056;3.712;2023-06-14T08:50:20;32.90;73.70
23371;DHT22;11858;51.056;3.712;2023-06-14T08:52:48;33.30;72.70
23371;DHT22;11858;51.056;3.712;2023-06-14T08:55:18;33.80;69.80
23371;DHT22;11858;51.056;3.712;2023-06-14T08:57:46;34.10;69.50
23371;DHT22;11858;51.056;3.712;2023-06-14T09:00:13;34.00;66.30
23371;DHT22;11858;51.056;3.712;2023-06-14T09:02:40;34.10;65.40
23371;DHT22;11858;51.056;3.712;2023-06-14T09:05:11;34.30;65.60
23371;DHT22;11858;51.056;3.712;2023-06-14T09:07:43;34.60;61.70
23371;DHT22;11858;51.056;3.712;2023-06-14T09:10:11;34.90;61.10
23371;DHT22;11858;51.056;3.712;2023-06-14T09:12:37;34.80;59.30
23371;DHT22;11858;51.056;3.712;2023-06-14T09:15:05;34.50;58.10
23371;DHT22;11858;51.056;3.712;2023-06-14T09:17:38;34.90;59.20
23371;DHT22;11858;51.056;3.712;2023-06-14T09:20:07;35.00;58.00
23371;DHT22;11858;51.056;3.712;2023-06-14T09:22:37;35.00;58.30
23371;DHT22;11858;51.056;3.712;2023-06-14T09:25:03;35.50;57.80
23371;DHT22;11858;51.056;3.712;2023-06-14T09:27:30;35.80;55.80
23371;DHT22;11858;51.056;3.712;2023-06-14T09:29:56;35.90;56.00
23371;DHT22;11858;51.056;3.712;2023-06-14T09:32:22;35.80;55.20
23371;DHT22;11858;51.056;3.712;2023-06-14T09:34:48;35.70;54.80
23371;DHT22;11858;51.056;3.712;2023-06-14T09:37:29;35.90;54.40
23371;DHT22;11858;51.056;3.712;2023-06-14T09:39:56;36.10;54.90
23371;DHT22;11858;51.056;3.712;2023-06-14T09:42:21;36.30;54.10
23371;DHT22;11858;51.056;3.712;2023-06-14T09:44:51;36.40;53.40
23371;DHT22;11858;51.056;3.712;2023-06-14T09:47:18;36.30;52.80
23371;DHT22;11858;51.056;3.712;2023-06-14T09:49:44;36.50;54.40
23371;DHT22;11858;51.056;3.712;2023-06-14T09:52:19;36.50;52.50
23371;DHT22;11858;51.056;3.712;2023-06-14T09:54:47;36.70;51.60
23371;DHT22;11858;51.056;3.712;2023-06-14T09:57:23;36.70;51.00
23371;DHT22;11858;51.056;3.712;2023-06-14T09:59:53;36.70;51.20
23371;DHT22;11858;51.056;3.712;2023-06-14T10:02:29;36.60;50.70
23371;DHT22;11858;51.056;3.712;2023-06-14T10:05:09;36.40;51.20
23371;DHT22;11858;51.056;3.712;2023-06-14T10:07:42;36.60;50.90
23371;DHT22;11858;51.056;3.712;2023-06-14T10:10:10;36.50;50.40
23371;DHT22;11858;51.056;3.712;2023-06-14T10:12:36;36.50;49.60
23371;DHT22;11858;51.056;3.712;2023-06-14T10:15:02;36.60;48.90
23371;DHT22;11858;51.056;3.712;2023-06-14T10:17:47;36.80;49.40
23371;DHT22;11858;51.056;3.712;2023-06-14T10:20:42;37.00;47.00
23371;DHT22;11858;51.056;3.712;2023-06-14T10:23:20;36.50;47.90
23371;DHT22;11858;51.056;3.712;2023-06-14T10:25:50;36.90;50.00
23371;DHT22;11858;51.056;3.712;2023-06-14T10:28:17;37.20;48.90
23371;DHT22;11858;51.056;3.712;2023-06-14T10:31:03;36.40;49.20
23371;DHT22;11858;51.056;3.712;2023-06-14T10:36:26;37.10;49.90
23371;DHT22;11858;51.056;3.712;2023-06-14T10:39:14;37.30;48.50
23371;DHT22;11858;51.056;3.712;2023-06-14T10:41:41;37.00;48.60
23371;DHT22;11858;51.056;3.712;2023-06-14T10:46:49;37.60;48.90
23371;DHT22;11858;51.056;3.712;2023-06-14T10:49:18;37.80;49.00
23371;DHT22;11858;51.056;3.712;2023-06-14T10:51:46;37.50;48.20
23371;DHT22;11858;51.056;3.712;2023-06-14T10:54:16;37.70;48.70
23371;DHT22;11858;51.056;3.712;2023-06-14T10:56:50;37.40;48.40
23371;DHT22;11858;51.056;3.712;2023-06-14T10:59:17;38.00;45.90
23371;DHT22;11858;51.056;3.712;2023-06-14T11:04:20;37.50;45.70
23371;DHT22;11858;51.056;3.712;2023-06-14T11:06:47;37.50;45.80
23371;DHT22;11858;51.056;3.712;2023-06-14T11:09:35;37.60;46.50
23371;DHT22;11858;51.056;3.712;2023-06-14T11:12:09;37.90;45.90
23371;DHT22;11858;51.056;3.712;2023-06-14T11:14:36;37.80;46.10
23371;DHT22;11858;51.056;3.712;2023-06-14T11:17:01;37.90;46.80
23371;DHT22;11858;51.056;3.712;2023-06-14T11:19:27;38.20;45.60
23371;DHT22;11858;51.056;3.712;2023-06-14T11:21:54;38.50;45.50
23371;DHT22;11858;51.056;3.712;2023-06-14T11:24:20;38.60;46.00
23371;DHT22;11858;51.056;3.712;2023-06-14T11:26:47;39.10;44.30
23371;DHT22;11858;51.056;3.712;2023-06-14T11:29:15;39.10;44.80
23371;DHT22;11858;51.056;3.712;2023-06-14T11:31:45;38.70;44.30
23371;DHT22;11858;51.056;3.712;2023-06-14T11:34:12;38.30;43.30
23371;DHT22;11858;51.056;3.712;2023-06-14T11:36:39;38.40;44.60
23371;DHT22;11858;51.056;3.712;2023-06-14T11:39:06;38.40;44.30
23371;DHT22;11858;51.056;3.712;2023-06-14T11:41:43;39.00;44.00
23371;DHT22;11858;51.056;3.712;2023-06-14T11:44:09;39.20;43.00
23371;DHT22;11858;51.056;3.712;2023-06-14T11:46:35;39.00;41.30
23371;DHT22;11858;51.056;3.712;2023-06-14T11:49:02;38.70;43.30
23371;DHT22;11858;51.056;3.712;2023-06-14T11:51:33;38.70;43.00
23371;DHT22;11858;51.056;3.712;2023-06-14T11:54:02;38.50;42.50
23371;DHT22;11858;51.056;3.712;2023-06-14T11:56:30;37.60;42.70
23371;DHT22;11858;51.056;3.712;2023-06-14T11:58:57;37.50;43.20
23371;DHT22;11858;51.056;3.712;2023-06-14T12:01:23;37.60;42.90
23371;DHT22;11858;51.056;3.712;2023-06-14T12:03:50;37.80;42.90
23371;DHT22;11858;51.056;3.712;2023-06-14T12:06:16;37.60;43.60
23371;DHT22;11858;51.056;3.712;2023-06-14T12:08:44;37.80;43.10
23371;DHT22;11858;51.056;3.712;2023-06-14T12:11:12;37.20;43.80
23371;DHT22;11858;51.056;3.712;2023-06-14T12:13:42;37.00;43.90
23371;DHT22;11858;51.056;3.712;2023-06-14T12:16:09;37.20;42.70
23371;DHT22;11858;51.056;3.712;2023-06-14T12:18:39;38.10;43.00
23371;DHT22;11858;51.056;3.712;2023-06-14T12:21:07;38.80;42.90
23371;DHT22;11858;51.056;3.712;2023-06-14T12:23:41;39.30;41.80
23371;DHT22;11858;51.056;3.712;2023-06-14T12:26:07;39.30;42.40
23371;DHT22;11858;51.056;3.712;2023-06-14T12:28:33;39.60;42.40
23371;DHT22;11858;51.056;3.712;2023-06-14T12:30:58;39.60;42.30
23371;DHT22;11858;51.056;3.712;2023-06-14T12:33:24;39.50;41.50
23371;DHT22;11858;51.056;3.712;2023-06-14T12:35:53;39.60;41.30
23371;DHT22;11858;51.056;3.712;2023-06-14T12:38:20;39.60;40.90
23371;DHT22;11858;51.056;3.712;2023-06-14T12:40:46;39.70;41.30
23371;DHT22;11858;51.056;3.712;2023-06-14T12:43:12;39.90;41.10
23371;DHT22;11858;51.056;3.712;2023-06-14T12:45:37;40.20;40.50
23371;DHT22;11858;51.056;3.712;2023-06-14T12:48:03;39.40;40.60
23371;DHT22;11858;51.056;3.712;2023-06-14T12:50:29;39.10;41.00
23371;DHT22;11858;51.056;3.712;2023-06-14T12:52:55;39.40;41.80
23371;DHT22;11858;51.056;3.712;2023-06-14T12:55:21;39.90;41.60
23371;DHT22;11858;51.056;3.712;2023-06-14T12:57:46;40.00;41.00
23371;DHT22;11858;51.056;3.712;2023-06-14T13:00:15;39.60;41.10
23371;DHT22;11858;51.056;3.712;2023-06-14T13:02:41;39.80;40.80
23371;DHT22;11858;51.056;3.712;2023-06-14T13:05:06;39.70;41.30
23371;DHT22;11858;51.056;3.712;2023-06-14T13:07:32;40.00;41.70
23371;DHT22;11858;51.056;3.712;2023-06-14T13:09:58;40.10;41.00
23371;DHT22;11858;51.056;3.712;2023-06-14T13:12:23;40.10;41.00
23371;DHT22;11858;51.056;3.712;2023-06-14T13:14:49;40.50;41.00
23371;DHT22;11858;51.056;3.712;2023-06-14T13:17:15;40.70;40.80
23371;DHT22;11858;51.056;3.712;2023-06-14T13:19:41;40.70;39.80
23371;DHT22;11858;51.056;3.712;2023-06-14T13:22:07;40.40;40.50
23371;DHT22;11858;51.056;3.712;2023-06-14T13:24:34;40.40;40.20
23371;DHT22;11858;51.056;3.712;2023-06-14T13:27:00;39.80;40.80
23371;DHT22;11858;51.056;3.712;2023-06-14T13:29:26;40.60;39.90
23371;DHT22;11858;51.056;3.712;2023-06-14T13:31:53;40.80;39.70
23371;DHT22;11858;51.056;3.712;2023-06-14T13:34:19;40.80;39.30
23371;DHT22;11858;51.056;3.712;2023-06-14T13:36:45;40.50;39.80
23371;DHT22;11858;51.056;3.712;2023-06-14T13:39:16;40.60;40.10
23371;DHT22;11858;51.056;3.712;2023-06-14T13:41:42;40.50;39.90
23371;DHT22;11858;51.056;3.712;2023-06-14T13:44:07;40.90;39.70
23371;DHT22;11858;51.056;3.712;2023-06-14T13:46:33;41.10;39.00
23371;DHT22;11858;51.056;3.712;2023-06-14T13:48:59;40.30;39.20
23371;DHT22;11858;51.056;3.712;2023-06-14T13:51:26;40.00;39.70
23371;DHT22;11858;51.056;3.712;2023-06-14T13:53:53;40.00;39.00
23371;DHT22;11858;51.056;3.712;2023-06-14T13:56:19;40.20;38.90
23371;DHT22;11858;51.056;3.712;2023-06-14T13:58:44;40.50;38.90
23371;DHT22;11858;51.056;3.712;2023-06-14T14:01:10;41.00;38.20
23371;DHT22;11858;51.056;3.712;2023-06-14T14:03:37;40.30;38.20
23371;DHT22;11858;51.056;3.712;2023-06-14T14:06:03;40.30;38.40
23371;DHT22;11858;51.056;3.712;2023-06-14T14:08:29;40.60;38.60
23371;DHT22;11858;51.056;3.712;2023-06-14T14:10:55;40.60;38.70
23371;DHT22;11858;51.056;3.712;2023-06-14T14:13:22;40.80;38.90
23371;DHT22;11858;51.056;3.712;2023-06-14T14:15:47;39.90;39.10
23371;DHT22;11858;51.056;3.712;2023-06-14T14:18:14;40.20;39.50
23371;DHT22;11858;51.056;3.712;2023-06-14T14:20:40;40.30;38.60
23371;DHT22;11858;51.056;3.712;2023-06-14T14:23:06;39.70;38.70
23371;DHT22;11858;51.056;3.712;2023-06-14T14:25:32;38.80;39.20
23371;DHT22;11858;51.056;3.712;2023-06-14T14:27:57;38.40;40.30
23371;DHT22;11858;51.056;3.712;2023-06-14T14:30:23;39.10;40.30
23371;DHT22;11858;51.056;3.712;2023-06-14T14:32:51;39.50;40.40
23371;DHT22;11858;51.056;3.712;2023-06-14T14:35:18;40.10;39.90
23371;DHT22;11858;51.056;3.712;2023-06-14T14:37:44;39.90;39.70
23371;DHT22;11858;51.056;3.712;2023-06-14T14:40:10;39.70;39.70
23371;DHT22;11858;51.056;3.712;2023-06-14T14:42:36;39.40;39.00
23371;DHT22;11858;51.056;3.712;2023-06-14T14:45:02;39.10;39.60
23371;DHT22;11858;51.056;3.712;2023-06-14T14:47:28;38.90;39.60
23371;DHT22;11858;51.056;3.712;2023-06-14T14:49:54;39.60;39.60
23371;DHT22;11858;51.056;3.712;2023-06-14T14:52:20;39.60;40.00
23371;DHT22;11858;51.056;3.712;2023-06-14T14:54:45;39.70;39.60
23371;DHT22;11858;51.056;3.712;2023-06-14T14:57:11;39.90;39.10
23371;DHT22;11858;51.056;3.712;2023-06-14T14:59:36;40.00;38.70
23371;DHT22;11858;51.056;3.712;2023-06-14T15:02:02;40.20;38.80
23371;DHT22;11858;51.056;3.712;2023-06-14T15:04:28;39.80;38.30
23371;DHT22;11858;51.056;3.712;2023-06-14T15:06:53;39.90;39.50
23371;DHT22;11858;51.056;3.712;2023-06-14T15:09:19;39.10;38.40
23371;DHT22;11858;51.056;3.712;2023-06-14T15:11:45;38.60;39.00
23371;DHT22;11858;51.056;3.712;2023-06-14T15:14:10;39.20;38.40
23371;DHT22;11858;51.056;3.712;2023-06-14T15:16:36;39.70;38.20
23371;DHT22;11858;51.056;3.712;2023-06-14T15:19:02;39.80;38.50
23371;DHT22;11858;51.056;3.712;2023-06-14T15:21:28;39.90;37.90
23371;DHT22;11858;51.056;3.712;2023-06-14T15:23:53;39.60;37.60
23371;DHT22;11858;51.056;3.712;2023-06-14T15:26:20;39.70;37.90
23371;DHT22;11858;51.056;3.712;2023-06-14T15:28:45;39.00;37.50
23371;DHT22;11858;51.056;3.712;2023-06-14T15:31:11;39.00;37.60
23371;DHT22;11858;51.056;3.712;2023-06-14T15:33:37;39.90;37.60
23371;DHT22;11858;51.056;3.712;2023-06-14T15:36:02;40.50;37.80
23371;DHT22;11858;51.056;3.712;2023-06-14T15:38:29;39.60;37.80
23371;DHT22;11858;51.056;3.712;2023-06-14T15:40:55;40.10;37.40